Time;durP1;ratioP1;P1;durP2;ratioP2;P2;SDS_P1;SDS_P2;PMS_P1;PMS_P2;Temp;Humidity;BMP_temperature;BMP_pressure;BME280_temperature;BME280_humidity;BME280_pressure;Samples;Min_cycle;Max_cycle;Signal;HPM_P1;HPM_P2
2022/05/18 00:01:09;;;;;;;2.50;1.30;;;;;;;;;;5132493;27;20367;-50
2022/05/18 00:03:42;;;;;;;2.65;1.30;;;;;;;;;;5132292;28;20573;-53
2022/05/18 00:06:10;;;;;;;3.88;1.63;;;;;;;;;;5132287;27;20039;-47
2022/05/18 00:08:37;;;;;;;1.98;1.35;;;;;;;;;;5132178;27;20107;-51
2022/05/18 00:11:10;;;;;;;2.20;1.30;;;;;;;;;;5135862;27;20039;-50
2022/05/18 00:13:39;;;;;;;5.55;1.80;;;;;;;;;;5136385;27;20046;-52
2022/05/18 00:16:06;;;;;;;5.18;1.50;;;;;;;;;;5136311;27;20046;-52
2022/05/18 00:18:33;;;;;;;3.03;1.55;;;;;;;;;;5136343;27;20094;-53
2022/05/18 00:21:01;;;;;;;1.90;1.48;;;;;;;;;;5136444;27;20038;-50
2022/05/18 00:23:28;;;;;;;3.53;1.90;;;;;;;;;;5136353;27;20114;-48
2022/05/18 00:25:56;;;;;;;2.40;1.27;;;;;;;;;;5136200;27;20489;-46
2022/05/18 00:28:23;;;;;;;3.13;1.35;;;;;;;;;;5136324;27;20379;-48
2022/05/18 00:30:51;;;;;;;2.35;1.35;;;;;;;;;;5136307;27;20490;-47
2022/05/18 00:33:19;;;;;;;1.67;1.13;;;;;;;;;;5136188;27;20042;-49
2022/05/18 00:35:46;;;;;;;2.58;1.20;;;;;;;;;;5136150;27;20039;-47
2022/05/18 00:38:13;;;;;;;2.72;1.25;;;;;;;;;;5136090;27;20057;-50
2022/05/18 00:40:45;;;;;;;2.78;1.63;;;;;;;;;;5136245;27;20050;-47
2022/05/18 00:43:20;;;;;;;3.63;1.40;;;;;;;;;;5117777;27;20597;-51
2022/05/18 00:45:48;;;;;;;2.55;1.35;;;;;;;;;;5135703;27;20045;-49
2022/05/18 00:48:15;;;;;;;3.05;1.38;;;;;;;;;;5136106;27;20043;-48
2022/05/18 00:50:42;;;;;;;3.83;1.45;;;;;;;;;;5136026;27;20036;-49
2022/05/18 00:53:14;;;;;;;2.95;1.45;;;;;;;;;;5135881;27;20039;-52
2022/05/18 00:55:44;;;;;;;3.75;1.40;;;;;;;;;;5136182;27;20047;-61
2022/05/18 00:58:17;;;;;;;2.83;1.05;;;;;;;;;;5135502;27;20045;-52
2022/05/18 01:00:47;;;;;;;2.35;1.20;;;;;;;;;;5135490;27;20043;-53
2022/05/18 01:03:22;;;;;;;1.95;1.13;;;;;;;;;;5135691;27;20401;-47
2022/05/18 01:05:56;;;;;;;1.80;1.20;;;;;;;;;;5135277;27;20393;-51
2022/05/18 01:08:27;;;;;;;;;;;;;;;;;;5136016;27;20043;-51
2022/05/18 01:10:54;;;;;;;2.58;1.20;;;;;;;;;;5135304;27;19923;-55
2022/05/18 01:13:23;;;;;;;1.88;1.08;;;;;;;;;;5135457;27;20081;-53
2022/05/18 01:15:51;;;;;;;1.83;1.13;;;;;;;;;;5135147;27;20059;-54
2022/05/18 01:18:18;;;;;;;2.03;1.25;;;;;;;;;;5135383;27;20147;-47
2022/05/18 01:20:46;;;;;;;2.28;1.05;;;;;;;;;;5135028;27;20039;-53
2022/05/18 01:23:31;;;;;;;1.67;1.10;;;;;;;;;;5135114;27;20461;-48
2022/05/18 01:26:13;;;;;;;3.38;1.58;;;;;;;;;;5116947;27;20118;-50
2022/05/18 01:28:44;;;;;;;3.05;1.30;;;;;;;;;;5134947;27;20442;-48
2022/05/18 01:31:12;;;;;;;2.08;1.10;;;;;;;;;;5134647;27;20050;-47
2022/05/18 01:33:39;;;;;;;2.42;1.10;;;;;;;;;;5135048;27;20031;-51
2022/05/18 01:36:06;;;;;;;2.92;1.15;;;;;;;;;;5134802;27;20498;-50
2022/05/18 01:38:34;;;;;;;2.65;1.20;;;;;;;;;;5134879;27;20050;-47
2022/05/18 01:41:18;;;;;;;2.58;1.10;;;;;;;;;;5135000;27;20118;-48
2022/05/18 01:43:52;;;;;;;2.38;1.33;;;;;;;;;;5135150;27;20033;-50
2022/05/18 01:46:21;;;;;;;2.60;1.30;;;;;;;;;;5134602;27;20532;-50
2022/05/18 01:48:51;;;;;;;3.95;1.30;;;;;;;;;;5134938;27;20114;-48
2022/05/18 01:51:45;;;;;;;2.63;1.17;;;;;;;;;;5134777;27;20062;-51
2022/05/18 01:54:13;;;;;;;2.00;1.10;;;;;;;;;;5123473;27;20055;-48
2022/05/18 01:56:40;;;;;;;1.92;1.20;;;;;;;;;;5134417;27;20047;-50
2022/05/18 01:59:08;;;;;;;2.30;1.27;;;;;;;;;;5134547;27;20390;-48
2022/05/18 02:01:36;;;;;;;1.67;1.20;;;;;;;;;;5124342;27;20081;-49
2022/05/18 02:04:04;;;;;;;2.13;1.23;;;;;;;;;;5113892;28;20036;-50
2022/05/18 02:06:33;;;;;;;1.85;1.00;;;;;;;;;;5113856;28;20039;-52
2022/05/18 02:09:04;;;;;;;32.45;14.10;;;;;;;;;;5095284;28;20052;-59
2022/05/18 02:11:33;;;;;;;5.53;2.90;;;;;;;;;;5113779;28;20126;-48
2022/05/18 02:14:00;;;;;;;3.47;1.35;;;;;;;;;;5113382;28;20052;-50
2022/05/18 02:16:28;;;;;;;2.45;1.25;;;;;;;;;;5113694;28;20073;-50
2022/05/18 02:18:55;;;;;;;1.77;1.17;;;;;;;;;;5113495;28;20084;-48
2022/05/18 02:21:22;;;;;;;2.08;1.45;;;;;;;;;;5113556;28;20071;-46
2022/05/18 02:23:49;;;;;;;16.75;6.55;;;;;;;;;;5113572;28;20036;-47
2022/05/18 02:26:18;;;;;;;4.07;1.65;;;;;;;;;;5094894;28;20545;-53
2022/05/18 02:28:46;;;;;;;2.72;1.35;;;;;;;;;;5104572;28;20040;-58
2022/05/18 02:31:13;;;;;;;2.83;1.30;;;;;;;;;;5113410;28;20456;-50
2022/05/18 02:33:41;;;;;;;2.75;1.23;;;;;;;;;;5112469;28;20135;-55
2022/05/18 02:36:11;;;;;;;4.07;1.45;;;;;;;;;;5113019;28;20414;-54
2022/05/18 02:38:39;;;;;;;1.80;1.17;;;;;;;;;;5113324;28;20486;-53
2022/05/18 02:41:06;;;;;;;2.60;1.40;;;;;;;;;;5113060;28;20084;-48
2022/05/18 02:43:40;;;;;;;3.10;1.30;;;;;;;;;;5113133;28;20114;-49
2022/05/18 02:46:18;;;;;;;;;;;;;;;;;;5113323;28;20492;-48
2022/05/18 02:48:47;;;;;;;12.00;5.43;;;;;;;;;;5094707;28;20388;-48
2022/05/18 02:51:15;;;;;;;3.95;1.77;;;;;;;;;;5113128;28;20109;-51
2022/05/18 02:53:43;;;;;;;2.95;1.50;;;;;;;;;;5112940;28;20043;-49
2022/05/18 02:56:16;;;;;;;2.97;1.20;;;;;;;;;;5112923;28;20047;-50
2022/05/18 02:58:48;;;;;;;3.80;1.30;;;;;;;;;;5112785;28;20038;-53
2022/05/18 03:01:24;;;;;;;3.40;1.17;;;;;;;;;;5112375;28;20483;-48
2022/05/18 03:03:53;;;;;;;3.22;1.50;;;;;;;;;;5112945;28;20051;-55
2022/05/18 03:06:25;;;;;;;19.65;7.95;;;;;;;;;;5112704;28;20074;-49
2022/05/18 03:08:53;;;;;;;3.25;1.58;;;;;;;;;;5112900;28;20402;-52
2022/05/18 03:11:20;;;;;;;4.80;1.65;;;;;;;;;;5112763;28;20039;-49
2022/05/18 03:13:48;;;;;;;2.83;1.13;;;;;;;;;;5112252;28;20074;-51
2022/05/18 03:16:16;;;;;;;4.03;1.20;;;;;;;;;;5112398;28;20395;-50
2022/05/18 03:18:44;;;;;;;3.85;1.40;;;;;;;;;;5112511;28;20051;-53
2022/05/18 03:23:57;;;;;;;2.22;1.20;;;;;;;;;;5112257;28;20410;-54
2022/05/18 03:26:25;;;;;;;2.15;1.10;;;;;;;;;;5111346;28;20852;-49
2022/05/18 03:28:55;;;;;;;2.65;1.10;;;;;;;;;;5112375;28;20074;-53
2022/05/18 03:31:24;;;;;;;4.60;1.08;;;;;;;;;;5112581;28;20061;-47
2022/05/18 03:33:54;;;;;;;2.63;1.27;;;;;;;;;;5112329;28;20074;-52
2022/05/18 03:36:23;;;;;;;1.55;1.05;;;;;;;;;;5110700;28;20044;-51
2022/05/18 03:38:51;;;;;;;1.52;1.13;;;;;;;;;;5112302;28;20143;-48
2022/05/18 03:41:19;;;;;;;3.50;1.27;;;;;;;;;;5111875;28;20437;-47
2022/05/18 03:43:46;;;;;;;2.33;1.23;;;;;;;;;;5111814;28;20490;-52
2022/05/18 03:46:15;;;;;;;1.88;1.17;;;;;;;;;;5111825;28;20231;-48
2022/05/18 03:48:43;;;;;;;2.13;1.27;;;;;;;;;;5112091;28;20394;-50
2022/05/18 03:51:13;;;;;;;1.70;1.20;;;;;;;;;;5111885;28;20040;-47
2022/05/18 03:53:43;;;;;;;2.17;1.00;;;;;;;;;;5112009;28;20208;-49
2022/05/18 03:56:11;;;;;;;1.88;1.13;;;;;;;;;;5111927;28;20050;-47
2022/05/18 03:58:39;;;;;;;1.65;1.00;;;;;;;;;;5112055;28;20490;-49
2022/05/18 04:01:13;;;;;;;2.55;1.20;;;;;;;;;;5111824;28;20059;-56
2022/05/18 04:03:59;;;;;;;47.95;22.92;;;;;;;;;;5111730;28;20039;-52
2022/05/18 04:06:42;;;;;;;10.80;5.70;;;;;;;;;;5111912;28;20040;-54
2022/05/18 04:09:28;;;;;;;2.13;1.00;;;;;;;;;;5111919;28;20555;-52
2022/05/18 04:12:12;;;;;;;3.55;1.20;;;;;;;;;;5111417;28;20039;-56
2022/05/18 04:14:54;;;;;;;;;;;;;;;;;;5112169;28;20468;-49
2022/05/18 04:17:25;;;;;;;3.85;1.20;;;;;;;;;;5111880;28;19920;-55
2022/05/18 04:19:54;;;;;;;4.38;1.90;;;;;;;;;;5111862;28;20040;-50
2022/05/18 04:22:23;;;;;;;2.53;1.17;;;;;;;;;;5111647;28;20040;-52
2022/05/18 04:24:51;;;;;;;2.92;1.45;;;;;;;;;;5111913;28;20036;-52
2022/05/18 04:27:19;;;;;;;1.92;1.25;;;;;;;;;;5111733;28;20032;-51
2022/05/18 04:29:46;;;;;;;1.67;0.90;;;;;;;;;;5111029;28;20050;-48
2022/05/18 04:32:13;;;;;;;2.20;1.25;;;;;;;;;;5091209;28;20085;-50
2022/05/18 04:34:41;;;;;;;2.63;1.00;;;;;;;;;;5111657;28;20114;-52
2022/05/18 04:37:08;;;;;;;1.95;1.08;;;;;;;;;;5111414;28;20040;-49
2022/05/18 04:39:35;;;;;;;2.20;1.17;;;;;;;;;;5111551;28;20067;-49
2022/05/18 04:42:03;;;;;;;4.53;1.00;;;;;;;;;;5111419;28;20036;-52
2022/05/18 04:44:30;;;;;;;2.90;1.20;;;;;;;;;;5111501;28;20074;-48
2022/05/18 04:46:58;;;;;;;2.13;1.10;;;;;;;;;;5111350;28;20048;-51
2022/05/18 04:49:26;;;;;;;3.78;1.20;;;;;;;;;;5111112;28;20459;-47
2022/05/18 04:51:56;;;;;;;1.27;0.93;;;;;;;;;;5093391;28;20035;-52
2022/05/18 04:54:25;;;;;;;2.40;1.40;;;;;;;;;;5111392;28;20173;-53
2022/05/18 04:56:53;;;;;;;1.50;0.90;;;;;;;;;;5114617;28;20140;-49
2022/05/18 04:59:20;;;;;;;2.13;1.10;;;;;;;;;;5115482;28;20039;-45
2022/05/18 05:01:47;;;;;;;3.13;1.30;;;;;;;;;;5115053;28;20070;-49
2022/05/18 05:04:15;;;;;;;2.28;1.08;;;;;;;;;;5114776;28;20048;-48
2022/05/18 05:06:43;;;;;;;4.53;1.20;;;;;;;;;;5115119;28;20086;-49
2022/05/18 05:09:11;;;;;;;2.53;1.15;;;;;;;;;;5114906;28;20047;-51
2022/05/18 05:11:38;;;;;;;1.48;0.90;;;;;;;;;;5114714;28;20036;-50
2022/05/18 05:14:06;;;;;;;2.70;1.05;;;;;;;;;;5114690;27;20402;-46
2022/05/18 05:16:33;;;;;;;1.15;0.80;;;;;;;;;;5114709;28;20050;-44
2022/05/18 05:19:00;;;;;;;5.63;1.10;;;;;;;;;;5114920;28;20046;-47
2022/05/18 05:21:28;;;;;;;2.65;1.15;;;;;;;;;;5114514;28;20043;-47
2022/05/18 05:23:55;;;;;;;2.67;0.80;;;;;;;;;;5114613;28;20040;-46
2022/05/18 05:26:22;;;;;;;0.90;0.80;;;;;;;;;;5113505;28;20444;-48
2022/05/18 05:28:49;;;;;;;3.15;1.27;;;;;;;;;;5114669;28;20126;-46
2022/05/18 05:31:17;;;;;;;2.03;1.00;;;;;;;;;;5114528;28;20040;-45
2022/05/18 05:33:44;;;;;;;3.53;1.10;;;;;;;;;;5114505;28;20058;-60
2022/05/18 05:36:12;;;;;;;3.90;0.80;;;;;;;;;;5114428;28;20044;-53
2022/05/18 05:38:39;;;;;;;2.47;1.20;;;;;;;;;;5114724;28;20486;-54
2022/05/18 05:41:06;;;;;;;3.15;0.98;;;;;;;;;;5114369;28;20459;-51
2022/05/18 05:43:34;;;;;;;1.52;0.80;;;;;;;;;;5114295;28;20054;-53
2022/05/18 05:46:07;;;;;;;2.15;1.08;;;;;;;;;;5114141;28;20056;-53
2022/05/18 05:48:36;;;;;;;1.17;0.70;;;;;;;;;;5114203;28;20048;-49
2022/05/18 05:51:04;;;;;;;2.05;1.10;;;;;;;;;;5114258;28;20420;-54
2022/05/18 05:53:32;;;;;;;2.83;0.93;;;;;;;;;;5095905;28;20044;-51
2022/05/18 05:56:00;;;;;;;2.50;1.00;;;;;;;;;;5114116;28;20040;-52
2022/05/18 05:58:33;;;;;;;2.38;1.20;;;;;;;;;;5114011;28;20509;-53
2022/05/18 06:01:03;;;;;;;1.45;0.88;;;;;;;;;;5114090;28;20040;-50
2022/05/18 06:03:31;;;;;;;2.10;1.00;;;;;;;;;;5113926;28;20057;-51
2022/05/18 06:05:58;;;;;;;3.17;1.30;;;;;;;;;;5113643;28;20043;-47
2022/05/18 06:08:26;;;;;;;1.42;0.90;;;;;;;;;;5112630;28;20486;-51
2022/05/18 06:10:54;;;;;;;2.05;0.85;;;;;;;;;;5113823;28;20484;-50
2022/05/18 06:13:21;;;;;;;2.45;1.00;;;;;;;;;;5113854;28;20119;-51
2022/05/18 06:15:48;;;;;;;1.77;0.82;;;;;;;;;;5113548;28;20113;-47
2022/05/18 06:18:16;;;;;;;1.52;1.00;;;;;;;;;;5113578;28;20056;-47
2022/05/18 06:20:47;;;;;;;2.17;1.10;;;;;;;;;;5113751;28;20099;-49
2022/05/18 06:23:16;;;;;;;2.08;1.02;;;;;;;;;;5113507;28;20228;-48
2022/05/18 06:25:44;;;;;;;2.15;0.80;;;;;;;;;;5113661;28;20490;-48
2022/05/18 06:28:11;;;;;;;3.03;0.82;;;;;;;;;;5113491;28;20085;-46
2022/05/18 06:30:39;;;;;;;2.72;0.80;;;;;;;;;;5113562;28;20040;-46
2022/05/18 06:33:07;;;;;;;1.60;0.90;;;;;;;;;;5113435;28;20075;-47
2022/05/18 06:35:34;;;;;;;3.30;1.00;;;;;;;;;;5095417;28;20047;-47
2022/05/18 06:38:12;;;;;;;2.42;0.80;;;;;;;;;;5113078;28;20506;-50
2022/05/18 06:43:27;;;;;;;3.00;0.88;;;;;;;;;;5113215;28;20045;-46
2022/05/18 06:45:54;;;;;;;4.53;1.08;;;;;;;;;;5113177;28;20044;-47
2022/05/18 06:48:22;;;;;;;2.30;0.80;;;;;;;;;;5113123;28;20040;-46
2022/05/18 06:51:14;;;;;;;1.35;0.73;;;;;;;;;;5112916;28;20035;-48
2022/05/18 06:53:41;;;;;;;1.48;0.82;;;;;;;;;;5112964;28;20081;-47
2022/05/18 06:56:09;;;;;;;2.72;1.13;;;;;;;;;;5112717;28;20101;-48
2022/05/18 06:58:36;;;;;;;1.40;0.75;;;;;;;;;;5112868;28;20047;-47
2022/05/18 07:01:06;;;;;;;2.13;1.00;;;;;;;;;;5112970;28;20040;-46
2022/05/18 07:03:34;;;;;;;2.13;1.00;;;;;;;;;;5112566;28;20115;-49
2022/05/18 07:06:02;;;;;;;1.35;0.85;;;;;;;;;;5112770;28;20032;-52
2022/05/18 07:08:29;;;;;;;2.55;0.90;;;;;;;;;;5112738;28;20074;-47
2022/05/18 07:10:57;;;;;;;1.30;0.90;;;;;;;;;;5112619;28;20036;-46
2022/05/18 07:13:25;;;;;;;1.35;0.75;;;;;;;;;;5112554;28;20122;-50
2022/05/18 07:15:52;;;;;;;1.85;0.90;;;;;;;;;;5112480;28;20051;-48
2022/05/18 07:18:29;;;;;;;3.28;0.85;;;;;;;;;;5112302;28;20067;-48
2022/05/18 07:21:03;;;;;;;1.98;0.85;;;;;;;;;;5112329;28;20118;-45
2022/05/18 07:23:31;;;;;;;2.80;0.93;;;;;;;;;;5112387;28;20067;-48
2022/05/18 07:25:59;;;;;;;0.90;0.70;;;;;;;;;;5111972;28;20394;-54
2022/05/18 07:28:26;;;;;;;1.20;0.90;;;;;;;;;;5112470;28;20406;-47
2022/05/18 07:30:54;;;;;;;1.83;0.70;;;;;;;;;;5112495;28;20395;-49
2022/05/18 07:33:24;;;;;;;2.47;0.90;;;;;;;;;;5093801;28;20522;-50
2022/05/18 07:35:53;;;;;;;1.65;0.70;;;;;;;;;;5092175;28;20071;-49
2022/05/18 07:38:24;;;;;;;2.97;0.80;;;;;;;;;;5091642;28;20028;-49
2022/05/18 07:41:13;;;;;;;1.35;0.93;;;;;;;;;;5091738;28;20082;-52
2022/05/18 07:43:41;;;;;;;0.95;0.63;;;;;;;;;;5091826;28;20040;-48
2022/05/18 07:46:10;;;;;;;1.08;0.55;;;;;;;;;;5091476;28;20040;-51
2022/05/18 07:48:38;;;;;;;1.50;1.00;;;;;;;;;;5091339;28;20072;-46
2022/05/18 07:51:06;;;;;;;1.38;0.80;;;;;;;;;;5091658;28;20093;-52
2022/05/18 07:53:33;;;;;;;2.65;0.63;;;;;;;;;;5091668;28;20072;-46
2022/05/18 07:56:00;;;;;;;0.77;0.50;;;;;;;;;;5091431;28;20044;-54
2022/05/18 07:58:28;;;;;;;1.55;0.80;;;;;;;;;;5091631;28;20044;-47
2022/05/18 08:00:56;;;;;;;1.60;0.65;;;;;;;;;;5091541;28;20042;-47
2022/05/18 08:03:24;;;;;;;1.15;0.70;;;;;;;;;;5091607;28;20098;-49
2022/05/18 08:05:51;;;;;;;1.85;0.70;;;;;;;;;;5091622;28;20040;-47
2022/05/18 08:08:21;;;;;;;1.10;0.63;;;;;;;;;;5091291;28;20402;-48
2022/05/18 08:16:20;;;;;;;1.85;0.70;;;;;;;;;;5091306;28;20445;-49
2022/05/18 08:18:49;;;;;;;1.70;0.70;;;;;;;;;;5091399;28;20043;-48
2022/05/18 08:21:18;;;;;;;1.67;0.52;;;;;;;;;;5091346;28;20070;-50
2022/05/18 08:23:45;;;;;;;2.72;0.88;;;;;;;;;;5091322;28;20082;-50
2022/05/18 08:26:12;;;;;;;0.82;0.60;;;;;;;;;;5091176;28;20040;-47
2022/05/18 08:28:40;;;;;;;1.85;0.70;;;;;;;;;;5101941;28;20040;-45
2022/05/18 08:31:07;;;;;;;2.42;0.90;;;;;;;;;;5113457;28;20040;-48
2022/05/18 08:33:35;;;;;;;2.53;0.68;;;;;;;;;;5115781;28;20437;-52
2022/05/18 08:36:04;;;;;;;1.17;0.70;;;;;;;;;;5115670;28;20044;-46
2022/05/18 08:38:32;;;;;;;0.88;0.50;;;;;;;;;;5095485;28;20032;-54
2022/05/18 08:41:44;;;;;;;1.17;0.60;;;;;;;;;;5095384;28;20114;-47
2022/05/18 08:44:28;;;;;;;2.97;0.50;;;;;;;;;;5094981;28;20051;-46
2022/05/18 08:47:30;;;;;;;2.25;0.60;;;;;;;;;;5095215;28;20051;-48
2022/05/18 08:49:59;;;;;;;1.00;0.60;;;;;;;;;;5095092;28;20036;-49
2022/05/18 08:52:50;;;;;;;1.90;0.70;;;;;;;;;;5094767;28;20043;-51
2022/05/18 08:55:39;;;;;;;1.08;0.50;;;;;;;;;;5094920;28;20036;-47
2022/05/18 08:58:15;;;;;;;0.52;0.50;;;;;;;;;;5094835;28;20044;-46
2022/05/18 09:00:49;;;;;;;1.02;0.60;;;;;;;;;;5094836;28;20040;-50
2022/05/18 09:03:30;;;;;;;1.27;0.55;;;;;;;;;;5094785;28;20075;-51
2022/05/18 09:06:07;;;;;;;1.25;0.80;;;;;;;;;;5094252;28;20402;-48
2022/05/18 09:08:38;;;;;;;1.48;0.57;;;;;;;;;;5094616;28;20040;-47
2022/05/18 09:11:14;;;;;;;1.27;0.63;;;;;;;;;;5094695;28;20472;-48
2022/05/18 09:13:42;;;;;;;2.10;0.57;;;;;;;;;;5094518;28;20036;-49
2022/05/18 09:16:30;;;;;;;1.15;0.70;;;;;;;;;;5094211;28;20384;-52
2022/05/18 09:19:36;;;;;;;2.65;0.57;;;;;;;;;;5078040;28;20510;-46
2022/05/18 09:22:22;;;;;;;0.52;0.50;;;;;;;;;;5094342;28;20111;-46
2022/05/18 09:25:27;;;;;;;0.40;0.40;;;;;;;;;;5094365;28;20037;-46
2022/05/18 09:28:25;;;;;;;0.45;0.30;;;;;;;;;;5098815;28;20046;-47
2022/05/18 09:30:56;;;;;;;0.60;0.50;;;;;;;;;;5114767;28;20043;-51
2022/05/18 09:33:39;;;;;;;2.20;0.55;;;;;;;;;;5114565;28;20115;-47
2022/05/18 09:36:37;;;;;;;0.40;0.40;;;;;;;;;;5114495;28;20043;-46
2022/05/18 09:39:10;;;;;;;0.47;0.40;;;;;;;;;;5114258;28;20036;-48
2022/05/18 09:41:52;;;;;;;1.70;0.63;;;;;;;;;;5114093;28;20036;-46
2022/05/18 09:44:35;;;;;;;0.45;0.40;;;;;;;;;;5114278;28;20049;-51
2022/05/18 09:47:04;;;;;;;1.15;0.70;;;;;;;;;;5114346;28;20046;-47
2022/05/18 09:49:40;;;;;;;2.05;0.50;;;;;;;;;;5114137;28;20089;-49
2022/05/18 09:52:09;;;;;;;0.30;0.30;;;;;;;;;;5114259;28;20042;-47
2022/05/18 09:54:38;;;;;;;1.25;0.60;;;;;;;;;;5114138;28;20459;-53
2022/05/18 09:57:20;;;;;;;0.90;0.40;;;;;;;;;;5114158;28;20039;-51
2022/05/18 10:00:08;;;;;;;0.45;0.38;;;;;;;;;;5114041;28;20501;-51
2022/05/18 10:08:43;;;;;;;1.00;0.38;;;;;;;;;;5031040;28;20560;-47
2022/05/18 10:11:16;;;;;;;;;;;;;;;;;;5031560;28;20041;-52
2022/05/18 10:14:06;;;;;;;0.38;0.30;;;;;;;;;;5077610;28;19923;-48
2022/05/18 10:16:42;;;;;;;0.43;0.35;;;;;;;;;;5113571;28;20126;-49
2022/05/18 10:19:20;;;;;;;0.30;0.30;;;;;;;;;;5113605;28;20046;-48
2022/05/18 10:21:53;;;;;;;0.65;0.43;;;;;;;;;;5113756;28;20039;-54
2022/05/18 10:24:45;;;;;;;0.65;0.38;;;;;;;;;;5113587;28;20040;-50
2022/05/18 10:27:22;;;;;;;1.83;0.55;;;;;;;;;;5113298;28;20035;-48
2022/05/18 10:29:52;;;;;;;1.00;0.35;;;;;;;;;;5093039;28;20087;-46
2022/05/18 10:32:27;;;;;;;2.28;0.60;;;;;;;;;;5093056;28;20032;-55
2022/05/18 10:34:56;;;;;;;1.80;0.50;;;;;;;;;;5093219;28;20044;-49
2022/05/18 10:37:37;;;;;;;1.48;0.60;;;;;;;;;;5093278;28;20115;-53
2022/05/18 10:40:08;;;;;;;0.73;0.40;;;;;;;;;;5092827;28;20063;-56
2022/05/18 10:42:51;;;;;;;0.98;0.60;;;;;;;;;;5092749;28;20040;-51
2022/05/18 10:45:33;;;;;;;1.23;0.50;;;;;;;;;;5092826;28;20529;-47
2022/05/18 10:48:11;;;;;;;1.70;0.40;;;;;;;;;;5092457;28;20040;-50
2022/05/18 10:50:40;;;;;;;0.30;0.30;;;;;;;;;;5092657;28;20395;-48
2022/05/18 10:53:15;;;;;;;0.45;0.30;;;;;;;;;;5091972;28;20036;-47
2022/05/18 10:56:05;;;;;;;0.45;0.38;;;;;;;;;;5092627;28;20499;-45
2022/05/18 10:58:40;;;;;;;0.57;0.35;;;;;;;;;;5092608;28;20044;-48
2022/05/18 11:01:26;;;;;;;0.52;0.32;;;;;;;;;;5074243;28;20048;-55
2022/05/18 11:04:16;;;;;;;0.65;0.20;;;;;;;;;;5075146;28;20044;-53
2022/05/18 11:06:44;;;;;;;0.30;0.30;;;;;;;;;;5092221;28;20437;-48
2022/05/18 11:09:19;;;;;;;0.50;0.30;;;;;;;;;;5092446;28;20070;-49
2022/05/18 11:11:57;;;;;;;1.02;0.40;;;;;;;;;;5092247;28;20903;-55
2022/05/18 11:15:02;;;;;;;0.35;0.35;;;;;;;;;;5092157;28;20105;-48
2022/05/18 11:17:52;;;;;;;1.15;0.40;;;;;;;;;;5083305;28;20454;-47
2022/05/18 11:20:29;;;;;;;1.63;0.60;;;;;;;;;;5092134;28;20054;-48
2022/05/18 11:23:05;;;;;;;0.57;0.40;;;;;;;;;;5092138;28;20119;-48
2022/05/18 11:25:38;;;;;;;1.75;0.50;;;;;;;;;;5091924;28;20040;-50
2022/05/18 11:28:55;;;;;;;0.77;0.60;;;;;;;;;;5101087;28;20047;-50
2022/05/18 11:31:28;;;;;;;0.70;0.60;;;;;;;;;;5112645;28;20467;-55
2022/05/18 11:34:15;;;;;;;;;;;;;;;;;;5112680;28;20031;-49
2022/05/18 11:36:58;;;;;;;0.93;0.40;;;;;;;;;;5071017;28;20348;-53
2022/05/18 11:39:53;;;;;;;0.40;0.30;;;;;;;;;;5112461;28;20077;-47
2022/05/18 11:42:58;;;;;;;1.50;0.80;;;;;;;;;;5112343;28;20081;-49
2022/05/18 11:45:49;;;;;;;0.73;0.50;;;;;;;;;;5112961;28;20565;-54
2022/05/18 11:48:46;;;;;;;0.85;0.40;;;;;;;;;;5111466;28;20544;-49
2022/05/18 11:51:35;;;;;;;0.65;0.50;;;;;;;;;;5094643;28;20108;-50
2022/05/18 11:54:44;;;;;;;0.63;0.50;;;;;;;;;;5111850;28;20044;-54
2022/05/18 11:57:32;;;;;;;1.27;0.80;;;;;;;;;;5085126;28;20510;-48
2022/05/18 12:03:28;;;;;;;1.00;0.60;;;;;;;;;;5073983;28;20108;-46
2022/05/18 12:06:11;;;;;;;0.50;0.45;;;;;;;;;;5111975;28;20432;-52
2022/05/18 12:08:56;;;;;;;0.55;0.40;;;;;;;;;;5111725;28;20055;-46
2022/05/18 12:11:40;;;;;;;0.73;0.47;;;;;;;;;;5111757;28;20448;-49
2022/05/18 12:14:15;;;;;;;;;;;;;;;;;;5112050;28;20447;-53
2022/05/18 12:17:04;;;;;;;0.75;0.40;;;;;;;;;;5111872;28;19967;-55
2022/05/18 12:19:50;;;;;;;0.65;0.40;;;;;;;;;;5111474;28;20059;-54
2022/05/18 12:22:38;;;;;;;0.90;0.60;;;;;;;;;;5111729;28;20047;-49
2022/05/18 12:25:09;;;;;;;1.00;0.55;;;;;;;;;;5111711;28;20035;-54
2022/05/18 12:27:36;;;;;;;1.02;0.50;;;;;;;;;;5111795;28;20040;-50
2022/05/18 12:30:06;;;;;;;0.60;0.38;;;;;;;;;;5111433;28;20043;-52
2022/05/18 12:32:34;;;;;;;3.10;0.32;;;;;;;;;;5111710;28;20043;-53
2022/05/18 12:35:02;;;;;;;0.63;0.40;;;;;;;;;;5111743;28;20043;-52
2022/05/18 12:37:34;;;;;;;0.85;0.30;;;;;;;;;;5111552;28;20115;-50
2022/05/18 12:40:19;;;;;;;0.47;0.40;;;;;;;;;;5111424;28;20070;-54
2022/05/18 12:42:57;;;;;;;0.57;0.50;;;;;;;;;;5111782;28;20942;-49
2022/05/18 12:45:40;;;;;;;0.25;0.25;;;;;;;;;;5111683;28;20037;-49
2022/05/18 12:48:13;;;;;;;0.65;0.30;;;;;;;;;;5111300;28;20044;-52
2022/05/18 12:51:05;;;;;;;0.60;0.30;;;;;;;;;;5111349;28;20036;-46
2022/05/18 12:53:51;;;;;;;0.57;0.43;;;;;;;;;;5110780;28;20287;-49
2022/05/18 12:56:43;;;;;;;0.45;0.35;;;;;;;;;;5111399;28;20071;-55
2022/05/18 12:59:18;;;;;;;2.10;0.50;;;;;;;;;;5097358;28;20047;-47
2022/05/18 13:02:16;;;;;;;2.47;0.38;;;;;;;;;;5111333;28;20043;-48
2022/05/18 13:04:46;;;;;;;1.00;0.40;;;;;;;;;;5110554;28;20039;-44
2022/05/18 13:07:30;;;;;;;0.50;0.38;;;;;;;;;;5087863;28;20039;-45
2022/05/18 13:10:19;;;;;;;0.60;0.50;;;;;;;;;;5111363;28;20086;-43
2022/05/18 13:13:10;;;;;;;0.35;0.25;;;;;;;;;;5109912;28;20069;-47
2022/05/18 13:16:00;;;;;;;2.15;0.80;;;;;;;;;;5110938;28;20059;-49
2022/05/18 13:18:38;;;;;;;7.38;0.80;;;;;;;;;;5115405;28;20069;-53
2022/05/18 13:21:28;;;;;;;1.00;0.38;;;;;;;;;;5114891;28;20031;-50
2022/05/18 13:24:13;;;;;;;0.77;0.38;;;;;;;;;;5113296;28;20039;-43
2022/05/18 13:26:49;;;;;;;0.70;0.40;;;;;;;;;;5114832;28;20096;-46
2022/05/18 13:29:22;;;;;;;0.63;0.45;;;;;;;;;;5114651;28;20101;-43
2022/05/18 13:31:57;;;;;;;0.50;0.40;;;;;;;;;;5114204;28;20399;-49
2022/05/18 13:34:36;;;;;;;1.67;0.40;;;;;;;;;;5114758;28;20468;-44
2022/05/18 13:37:04;;;;;;;1.05;0.50;;;;;;;;;;5114370;28;20106;-44
2022/05/18 13:39:38;;;;;;;3.90;0.52;;;;;;;;;;5114554;28;20490;-44
2022/05/18 13:42:14;;;;;;;1.13;0.40;;;;;;;;;;5112891;28;20134;-42
2022/05/18 13:44:43;;;;;;;1.08;0.57;;;;;;;;;;5114515;28;20093;-48
2022/05/18 13:47:16;;;;;;;0.73;0.40;;;;;;;;;;5114077;28;20052;-48
2022/05/18 13:49:44;;;;;;;0.70;0.32;;;;;;;;;;5114198;28;20093;-48
2022/05/18 13:52:20;;;;;;;0.55;0.35;;;;;;;;;;5114137;28;20043;-49
2022/05/18 13:54:56;;;;;;;30.05;26.85;;;;;;;;;;5114095;28;20049;-54
2022/05/18 13:57:33;;;;;;;33.53;18.52;;;;;;;;;;5114439;27;20044;-52
2022/05/18 14:00:03;;;;;;;2.90;1.67;;;;;;;;;;5113891;28;20430;-49
2022/05/18 14:02:40;;;;;;;0.88;0.50;;;;;;;;;;5114197;28;20470;-48
2022/05/18 14:05:14;;;;;;;1.90;0.65;;;;;;;;;;5113805;28;20048;-46
2022/05/18 14:07:44;;;;;;;0.70;0.47;;;;;;;;;;5113150;28;20490;-52
2022/05/18 14:10:32;;;;;;;0.65;0.50;;;;;;;;;;5113788;28;20040;-52
2022/05/18 14:13:04;;;;;;;0.70;0.50;;;;;;;;;;5113917;27;20077;-50
2022/05/18 14:15:37;;;;;;;0.88;0.50;;;;;;;;;;5113782;28;20491;-48
2022/05/18 14:18:17;;;;;;;0.32;0.30;;;;;;;;;;5113728;28;20118;-48
2022/05/18 14:21:10;;;;;;;0.60;0.30;;;;;;;;;;5113797;28;20088;-50
2022/05/18 14:24:11;;;;;;;2.53;0.40;;;;;;;;;;5113903;28;20103;-47
2022/05/18 14:26:54;;;;;;;0.63;0.38;;;;;;;;;;5113526;28;20566;-47
2022/05/18 14:29:36;;;;;;;0.98;0.55;;;;;;;;;;5112442;28;20589;-49
2022/05/18 14:32:10;;;;;;;1.30;0.50;;;;;;;;;;5113486;28;20054;-48
2022/05/18 14:34:43;;;;;;;0.68;0.50;;;;;;;;;;5113504;28;20046;-49
2022/05/18 14:37:30;;;;;;;0.63;0.40;;;;;;;;;;5112940;28;20032;-46
2022/05/18 14:40:00;;;;;;;0.95;0.40;;;;;;;;;;5113617;28;20409;-47
2022/05/18 14:42:30;;;;;;;0.57;0.40;;;;;;;;;;5113263;28;20468;-46
2022/05/18 14:45:10;;;;;;;1.50;0.57;;;;;;;;;;5113392;28;20032;-46
2022/05/18 14:47:41;;;;;;;4.20;0.60;;;;;;;;;;5111982;28;20490;-47
2022/05/18 14:50:16;;;;;;;0.60;0.40;;;;;;;;;;5112779;28;20111;-48
2022/05/18 14:53:25;;;;;;;0.60;0.47;;;;;;;;;;5112776;28;20503;-48
2022/05/18 14:56:04;;;;;;;0.50;0.50;;;;;;;;;;5112983;28;20126;-56
2022/05/18 14:58:43;;;;;;;8.88;5.50;;;;;;;;;;5092267;28;20058;-47
2022/05/18 15:01:33;;;;;;;30.38;16.35;;;;;;;;;;5091634;28;20048;-56
2022/05/18 15:04:27;;;;;;;6.88;2.65;;;;;;;;;;5092408;28;20441;-50
2022/05/18 15:07:23;;;;;;;0.52;0.50;;;;;;;;;;5104747;28;20039;-48
2022/05/18 15:09:54;;;;;;;0.85;0.40;;;;;;;;;;5112837;28;20090;-56
2022/05/18 15:12:31;;;;;;;1.20;0.40;;;;;;;;;;5112629;28;20074;-53
2022/05/18 15:15:12;;;;;;;0.68;0.40;;;;;;;;;;5112447;28;20051;-53
2022/05/18 15:17:47;;;;;;;0.75;0.47;;;;;;;;;;5112642;28;20071;-55
2022/05/18 15:20:21;;;;;;;1.05;0.60;;;;;;;;;;5110815;28;20082;-48
2022/05/18 15:22:55;;;;;;;0.45;0.40;;;;;;;;;;5105948;28;20047;-56
2022/05/18 15:25:41;;;;;;;0.85;0.65;;;;;;;;;;5110024;28;20055;-57
2022/05/18 15:28:18;;;;;;;3.22;0.63;;;;;;;;;;5111241;28;20487;-51
2022/05/18 15:30:50;;;;;;;1.08;0.50;;;;;;;;;;5109825;28;20152;-57
2022/05/18 15:33:18;;;;;;;0.40;0.40;;;;;;;;;;5110096;28;20217;-57
2022/05/18 15:35:54;;;;;;;0.57;0.30;;;;;;;;;;5092274;28;20510;-49
2022/05/18 15:38:23;;;;;;;0.40;0.30;;;;;;;;;;5111859;28;20078;-46
2022/05/18 15:40:50;;;;;;;80.32;49.30;;;;;;;;;;5111710;28;20081;-49
2022/05/18 15:43:18;;;;;;;11.27;7.47;;;;;;;;;;5111930;28;20043;-50
2022/05/18 15:45:48;;;;;;;1.38;0.60;;;;;;;;;;5111789;28;20035;-49